sensor_id;sensor_type;location;lat;lon;timestamp;pressure;altitude;pressure_sealevel;temperature;humidity
23281;BME280;11809;56.390;-3.266;2023-04-16T00:00:24;101829.06;;;17.24;54.36
23281;BME280;11809;56.390;-3.266;2023-04-16T00:02:50;101819.31;;;17.24;54.05
23281;BME280;11809;56.390;-3.266;2023-04-16T00:05:18;101820.31;;;17.22;53.99
23281;BME280;11809;56.390;-3.266;2023-04-16T00:07:45;101823.91;;;17.21;53.99
23281;BME280;11809;56.390;-3.266;2023-04-16T00:10:12;101834.56;;;17.19;54.16
23281;BME280;11809;56.390;-3.266;2023-04-16T00:12:39;101829.34;;;17.18;54.04
23281;BME280;11809;56.390;-3.266;2023-04-16T00:15:07;101828.47;;;17.17;54.21
23281;BME280;11809;56.390;-3.266;2023-04-16T00:17:34;101825.06;;;17.15;54.27
23281;BME280;11809;56.390;-3.266;2023-04-16T00:20:01;101830.50;;;17.12;54.25
23281;BME280;11809;56.390;-3.266;2023-04-16T00:22:28;101829.63;;;17.12;54.17
23281;BME280;11809;56.390;-3.266;2023-04-16T00:24:55;101827.94;;;17.11;54.25
23281;BME280;11809;56.390;-3.266;2023-04-16T00:27:22;101834.25;;;17.08;54.28
23281;BME280;11809;56.390;-3.266;2023-04-16T00:29:49;101829.97;;;17.06;54.37
23281;BME280;11809;56.390;-3.266;2023-04-16T00:32:16;101827.31;;;17.06;54.44
23281;BME280;11809;56.390;-3.266;2023-04-16T00:34:43;101816.72;;;17.04;54.37
23281;BME280;11809;56.390;-3.266;2023-04-16T00:37:10;101820.34;;;17.03;54.49
23281;BME280;11809;56.390;-3.266;2023-04-16T00:39:37;101823.06;;;17.02;54.42
23281;BME280;11809;56.390;-3.266;2023-04-16T00:42:04;101821.31;;;17.01;54.46
23281;BME280;11809;56.390;-3.266;2023-04-16T00:44:31;101816.09;;;16.99;54.50
23281;BME280;11809;56.390;-3.266;2023-04-16T00:47:02;101810.78;;;16.99;54.56
23281;BME280;11809;56.390;-3.266;2023-04-16T00:49:29;101802.97;;;16.96;54.59
23281;BME280;11809;56.390;-3.266;2023-04-16T00:51:57;101817.19;;;16.95;54.62
23281;BME280;11809;56.390;-3.266;2023-04-16T00:54:24;101813.66;;;16.94;54.54
23281;BME280;11809;56.390;-3.266;2023-04-16T00:56:51;101813.88;;;16.90;54.70
23281;BME280;11809;56.390;-3.266;2023-04-16T00:59:18;101817.25;;;16.93;54.77
23281;BME280;11809;56.390;-3.266;2023-04-16T01:01:45;101816.38;;;16.93;54.64
23281;BME280;11809;56.390;-3.266;2023-04-16T01:04:13;101820.91;;;16.91;54.78
23281;BME280;11809;56.390;-3.266;2023-04-16T01:06:40;101817.47;;;16.89;54.87
23281;BME280;11809;56.390;-3.266;2023-04-16T01:09:09;101806.00;;;16.88;54.84
23281;BME280;11809;56.390;-3.266;2023-04-16T01:11:37;101812.31;;;16.86;54.91
23281;BME280;11809;56.390;-3.266;2023-04-16T01:14:05;101804.63;;;16.80;54.84
23281;BME280;11809;56.390;-3.266;2023-04-16T01:16:32;101808.00;;;16.83;54.96
23281;BME280;11809;56.390;-3.266;2023-04-16T01:18:59;101816.91;;;16.82;55.05
23281;BME280;11809;56.390;-3.266;2023-04-16T01:21:26;101812.44;;;16.83;54.90
23281;BME280;11809;56.390;-3.266;2023-04-16T01:23:53;101808.06;;;16.82;54.92
23281;BME280;11809;56.390;-3.266;2023-04-16T01:26:20;101807.28;;;16.80;55.07
23281;BME280;11809;56.390;-3.266;2023-04-16T01:28:47;101812.59;;;16.80;55.01
23281;BME280;11809;56.390;-3.266;2023-04-16T01:31:14;101805.59;;;16.79;55.12
23281;BME280;11809;56.390;-3.266;2023-04-16T01:33:41;101806.50;;;16.78;55.21
23281;BME280;11809;56.390;-3.266;2023-04-16T01:36:08;101803.94;;;16.76;55.05
23281;BME280;11809;56.390;-3.266;2023-04-16T01:38:35;101806.50;;;16.78;55.18
23281;BME280;11809;56.390;-3.266;2023-04-16T01:41:02;101795.88;;;16.78;55.17
23281;BME280;11809;56.390;-3.266;2023-04-16T01:43:29;101796.81;;;16.77;55.14
23281;BME280;11809;56.390;-3.266;2023-04-16T01:46:13;101798.53;;;16.78;55.30
23281;BME280;11809;56.390;-3.266;2023-04-16T01:48:41;101807.44;;;16.77;55.21
23281;BME280;11809;56.390;-3.266;2023-04-16T01:51:08;101799.53;;;16.75;55.22
23281;BME280;11809;56.390;-3.266;2023-04-16T01:53:35;101799.63;;;16.74;55.19
23281;BME280;11809;56.390;-3.266;2023-04-16T01:56:03;101799.53;;;16.75;55.25
23281;BME280;11809;56.390;-3.266;2023-04-16T01:58:31;101796.03;;;16.75;55.24
23281;BME280;11809;56.390;-3.266;2023-04-16T02:00:59;101797.13;;;16.71;55.14
23281;BME280;11809;56.390;-3.266;2023-04-16T02:03:26;101799.63;;;16.74;55.26
23281;BME280;11809;56.390;-3.266;2023-04-16T02:05:53;101798.81;;;16.72;55.28
23281;BME280;11809;56.390;-3.266;2023-04-16T02:08:21;101799.69;;;16.72;55.34
23281;BME280;11809;56.390;-3.266;2023-04-16T02:10:48;101798.75;;;16.73;55.27
23281;BME280;11809;56.390;-3.266;2023-04-16T02:13:16;101799.63;;;16.74;55.36
23281;BME280;11809;56.390;-3.266;2023-04-16T02:15:47;101788.16;;;16.73;55.45
23281;BME280;11809;56.390;-3.266;2023-04-16T02:18:14;101794.38;;;16.72;55.43
23281;BME280;11809;56.390;-3.266;2023-04-16T02:20:43;101791.66;;;16.74;55.39
23281;BME280;11809;56.390;-3.266;2023-04-16T02:23:11;101789.94;;;16.73;55.32
23281;BME280;11809;56.390;-3.266;2023-04-16T02:25:39;101784.63;;;16.73;55.49
23281;BME280;11809;56.390;-3.266;2023-04-16T02:28:08;101775.88;;;16.71;55.40
23281;BME280;11809;56.390;-3.266;2023-04-16T02:30:36;101784.63;;;16.73;55.33
23281;BME280;11809;56.390;-3.266;2023-04-16T02:33:04;101789.94;;;16.73;55.43
23281;BME280;11809;56.390;-3.266;2023-04-16T02:35:33;101785.53;;;16.72;55.41
23281;BME280;11809;56.390;-3.266;2023-04-16T02:38:01;101787.34;;;16.71;55.55
23281;BME280;11809;56.390;-3.266;2023-04-16T02:40:29;101781.19;;;16.71;55.54
23281;BME280;11809;56.390;-3.266;2023-04-16T02:42:57;101777.59;;;16.72;55.58
23281;BME280;11809;56.390;-3.266;2023-04-16T02:45:24;101779.38;;;16.71;55.54
23281;BME280;11809;56.390;-3.266;2023-04-16T02:47:51;101782.91;;;16.72;55.53
23281;BME280;11809;56.390;-3.266;2023-04-16T02:50:18;101781.19;;;16.71;55.58
23281;BME280;11809;56.390;-3.266;2023-04-16T02:52:45;101782.91;;;16.72;55.54
23281;BME280;11809;56.390;-3.266;2023-04-16T02:55:12;101770.72;;;16.68;55.51
23281;BME280;11809;56.390;-3.266;2023-04-16T02:57:39;101778.53;;;16.71;55.53
23281;BME280;11809;56.390;-3.266;2023-04-16T03:00:08;101773.22;;;16.71;55.64
23281;BME280;11809;56.390;-3.266;2023-04-16T03:02:35;101780.31;;;16.70;55.68
23281;BME280;11809;56.390;-3.266;2023-04-16T03:05:03;101786.50;;;16.71;55.69
23281;BME280;11809;56.390;-3.266;2023-04-16T03:07:30;101791.81;;;16.71;55.67
23281;BME280;11809;56.390;-3.266;2023-04-16T03:09:57;101790.00;;;16.71;55.73
23281;BME280;11809;56.390;-3.266;2023-04-16T03:12:24;101783.84;;;16.71;55.59
23281;BME280;11809;56.390;-3.266;2023-04-16T03:14:51;101789.06;;;16.72;55.54
23281;BME280;11809;56.390;-3.266;2023-04-16T03:17:18;101782.91;;;16.72;55.56
23281;BME280;11809;56.390;-3.266;2023-04-16T03:19:45;101783.75;;;16.72;55.54
23281;BME280;11809;56.390;-3.266;2023-04-16T03:22:12;101789.94;;;16.73;55.54
23281;BME280;11809;56.390;-3.266;2023-04-16T03:24:39;101788.19;;;16.72;55.57
23281;BME280;11809;56.390;-3.266;2023-04-16T03:27:06;101779.31;;;16.73;55.64
23281;BME280;11809;56.390;-3.266;2023-04-16T03:29:35;101789.00;;;16.74;55.73
23281;BME280;11809;56.390;-3.266;2023-04-16T03:32:04;101786.34;;;16.74;55.67
23281;BME280;11809;56.390;-3.266;2023-04-16T03:34:31;101785.63;;;16.70;55.68
23281;BME280;11809;56.390;-3.266;2023-04-16T03:36:58;101791.66;;;16.74;55.69
23281;BME280;11809;56.390;-3.266;2023-04-16T03:39:25;101787.28;;;16.73;55.55
23281;BME280;11809;56.390;-3.266;2023-04-16T03:41:52;101781.06;;;16.74;55.75
23281;BME280;11809;56.390;-3.266;2023-04-16T03:44:19;101787.19;;;16.74;55.66
23281;BME280;11809;56.390;-3.266;2023-04-16T03:46:46;101781.88;;;16.74;55.62
23281;BME280;11809;56.390;-3.266;2023-04-16T03:49:13;101782.75;;;16.75;55.51
23281;BME280;11809;56.390;-3.266;2023-04-16T03:51:40;101792.44;;;16.76;55.62
23281;BME280;11809;56.390;-3.266;2023-04-16T03:54:07;101784.63;;;16.73;55.80
23281;BME280;11809;56.390;-3.266;2023-04-16T03:56:34;101793.31;;;16.76;55.58
23281;BME280;11809;56.390;-3.266;2023-04-16T03:59:01;101804.78;;;16.77;55.56
23281;BME280;11809;56.390;-3.266;2023-04-16T04:01:28;101800.41;;;16.76;55.52
23281;BME280;11809;56.390;-3.266;2023-04-16T04:03:55;101798.53;;;16.78;55.69
23281;BME280;11809;56.390;-3.266;2023-04-16T04:06:22;101794.16;;;16.77;55.70
23281;BME280;11809;56.390;-3.266;2023-04-16T04:08:49;101793.22;;;16.78;55.74
23281;BME280;11809;56.390;-3.266;2023-04-16T04:11:16;101797.63;;;16.79;55.59
23281;BME280;11809;56.390;-3.266;2023-04-16T04:13:43;101779.22;;;16.74;55.60
23281;BME280;11809;56.390;-3.266;2023-04-16T04:16:10;101797.63;;;16.79;55.59
23281;BME280;11809;56.390;-3.266;2023-04-16T04:18:37;101787.00;;;16.79;55.67
23281;BME280;11809;56.390;-3.266;2023-04-16T04:21:05;101796.75;;;16.78;55.55
23281;BME280;11809;56.390;-3.266;2023-04-16T04:23:33;101798.63;;;16.76;55.52
23281;BME280;11809;56.390;-3.266;2023-04-16T04:26:00;101801.97;;;16.80;55.63
23281;BME280;11809;56.390;-3.266;2023-04-16T04:28:33;101800.28;;;16.79;55.64
23281;BME280;11809;56.390;-3.266;2023-04-16T04:31:00;101798.41;;;16.81;55.54
23281;BME280;11809;56.390;-3.266;2023-04-16T04:33:27;101800.19;;;16.80;55.55
23281;BME280;11809;56.390;-3.266;2023-04-16T04:35:54;101801.06;;;16.81;55.55
23281;BME280;11809;56.390;-3.266;2023-04-16T04:38:22;101795.75;;;16.81;55.46
23281;BME280;11809;56.390;-3.266;2023-04-16T04:40:51;101797.44;;;16.82;55.65
23281;BME280;11809;56.390;-3.266;2023-04-16T04:43:19;101790.34;;;16.82;55.54
23281;BME280;11809;56.390;-3.266;2023-04-16T04:45:47;101791.22;;;16.83;55.51
23281;BME280;11809;56.390;-3.266;2023-04-16T04:48:15;101797.44;;;16.82;55.47
23281;BME280;11809;56.390;-3.266;2023-04-16T04:50:44;101804.47;;;16.83;55.55
23281;BME280;11809;56.390;-3.266;2023-04-16T04:53:11;101801.78;;;16.84;55.48
23281;BME280;11809;56.390;-3.266;2023-04-16T04:55:40;101798.16;;;16.85;55.46
23281;BME280;11809;56.390;-3.266;2023-04-16T04:58:07;101786.75;;;16.83;55.39
23281;BME280;11809;56.390;-3.266;2023-04-16T05:00:35;101787.53;;;16.85;55.56
23281;BME280;11809;56.390;-3.266;2023-04-16T05:03:04;101795.47;;;16.87;55.43
23281;BME280;11809;56.390;-3.266;2023-04-16T05:05:31;101795.47;;;16.87;55.49
23281;BME280;11809;56.390;-3.266;2023-04-16T05:07:58;101788.41;;;16.86;55.51
23281;BME280;11809;56.390;-3.266;2023-04-16T05:10:26;101785.75;;;16.86;55.59
23281;BME280;11809;56.390;-3.266;2023-04-16T05:12:53;101782.22;;;16.85;55.56
23281;BME280;11809;56.390;-3.266;2023-04-16T05:15:20;101776.88;;;16.87;55.39
23281;BME280;11809;56.390;-3.266;2023-04-16T05:17:47;101776.00;;;16.86;55.40
23281;BME280;11809;56.390;-3.266;2023-04-16T05:20:14;101774.34;;;16.84;55.17
23281;BME280;11809;56.390;-3.266;2023-04-16T05:22:41;101777.00;;;16.84;55.00
23281;BME280;11809;56.390;-3.266;2023-04-16T05:25:08;101769.03;;;16.84;55.10
23281;BME280;11809;56.390;-3.266;2023-04-16T05:27:36;101777.88;;;16.84;55.19
23281;BME280;11809;56.390;-3.266;2023-04-16T05:30:03;101776.00;;;16.86;55.12
23281;BME280;11809;56.390;-3.266;2023-04-16T05:32:30;101781.22;;;16.88;55.22
23281;BME280;11809;56.390;-3.266;2023-04-16T05:34:57;101783.00;;;16.87;55.28
23281;BME280;11809;56.390;-3.266;2023-04-16T05:37:24;101774.13;;;16.88;55.06
23281;BME280;11809;56.390;-3.266;2023-04-16T05:39:51;101781.16;;;16.89;55.17
23281;BME280;11809;56.390;-3.266;2023-04-16T05:42:18;101784.66;;;16.90;55.29
23281;BME280;11809;56.390;-3.266;2023-04-16T05:44:45;101786.91;;;16.80;54.19
23281;BME280;11809;56.390;-3.266;2023-04-16T05:47:12;101789.66;;;16.79;54.16
23281;BME280;11809;56.390;-3.266;2023-04-16T05:49:39;101788.66;;;16.81;54.27
23281;BME280;11809;56.390;-3.266;2023-04-16T05:52:06;101783.34;;;16.81;54.30
23281;BME280;11809;56.390;-3.266;2023-04-16T05:54:33;101794.72;;;16.83;54.77
23281;BME280;11809;56.390;-3.266;2023-04-16T05:57:01;101798.13;;;16.87;54.77
23281;BME280;11809;56.390;-3.266;2023-04-16T05:59:28;101790.94;;;16.89;55.07
23281;BME280;11809;56.390;-3.266;2023-04-16T06:01:56;101806.84;;;16.89;55.36
23281;BME280;11809;56.390;-3.266;2023-04-16T06:04:24;101799.81;;;16.88;55.36
23281;BME280;11809;56.390;-3.266;2023-04-16T06:06:51;101803.34;;;16.88;55.25
23281;BME280;11809;56.390;-3.266;2023-04-16T06:09:18;101806.00;;;16.88;55.06
23281;BME280;11809;56.390;-3.266;2023-04-16T06:11:45;101806.06;;;16.87;55.25
23281;BME280;11809;56.390;-3.266;2023-04-16T06:14:12;101808.56;;;16.90;55.33
23281;BME280;11809;56.390;-3.266;2023-04-16T06:16:39;101805.91;;;16.90;55.24
23281;BME280;11809;56.390;-3.266;2023-04-16T06:19:06;101806.22;;;16.84;55.19
23281;BME280;11809;56.390;-3.266;2023-04-16T06:21:34;101811.03;;;16.76;54.73
23281;BME280;11809;56.390;-3.266;2023-04-16T06:24:01;101815.69;;;16.71;54.68
23281;BME280;11809;56.390;-3.266;2023-04-16T06:26:28;101819.13;;;16.54;53.29
23281;BME280;11809;56.390;-3.266;2023-04-16T06:28:55;101825.41;;;16.52;53.88
23281;BME280;11809;56.390;-3.266;2023-04-16T06:31:22;101829.59;;;16.57;54.38
23281;BME280;11809;56.390;-3.266;2023-04-16T06:33:50;101833.13;;;16.58;54.77
23281;BME280;11809;56.390;-3.266;2023-04-16T06:36:17;101834.97;;;16.56;55.35
23281;BME280;11809;56.390;-3.266;2023-04-16T06:38:44;101837.47;;;16.59;55.48
23281;BME280;11809;56.390;-3.266;2023-04-16T06:41:13;101840.13;;;16.59;55.47
23281;BME280;11809;56.390;-3.266;2023-04-16T06:43:40;101836.63;;;16.58;55.72
23281;BME280;11809;56.390;-3.266;2023-04-16T06:46:07;101840.13;;;16.59;55.85
23281;BME280;11809;56.390;-3.266;2023-04-16T06:48:34;101844.53;;;16.60;55.73
23281;BME280;11809;56.390;-3.266;2023-04-16T06:51:01;101840.13;;;16.59;55.93
23281;BME280;11809;56.390;-3.266;2023-04-16T06:53:28;101841.88;;;16.60;56.14
23281;BME280;11809;56.390;-3.266;2023-04-16T06:55:55;101845.41;;;16.60;56.00
23281;BME280;11809;56.390;-3.266;2023-04-16T06:58:22;101842.56;;;16.63;56.06
23281;BME280;11809;56.390;-3.266;2023-04-16T07:00:49;101844.38;;;16.63;56.12
23281;BME280;11809;56.390;-3.266;2023-04-16T07:03:16;101846.19;;;16.62;56.04
23281;BME280;11809;56.390;-3.266;2023-04-16T07:05:44;101837.25;;;16.63;56.29
23281;BME280;11809;56.390;-3.266;2023-04-16T07:08:11;101847.88;;;16.63;56.44
23281;BME280;11809;56.390;-3.266;2023-04-16T07:10:38;101847.03;;;16.63;56.46
23281;BME280;11809;56.390;-3.266;2023-04-16T07:13:05;101842.66;;;16.62;56.30
23281;BME280;11809;56.390;-3.266;2023-04-16T07:15:32;101856.66;;;16.65;56.25
23281;BME280;11809;56.390;-3.266;2023-04-16T07:17:59;101850.47;;;16.65;56.48
23281;BME280;11809;56.390;-3.266;2023-04-16T07:20:26;101853.88;;;16.68;56.39
23281;BME280;11809;56.390;-3.266;2023-04-16T07:22:53;101860.00;;;16.69;56.37
23281;BME280;11809;56.390;-3.266;2023-04-16T07:25:20;101859.97;;;16.70;56.14
23281;BME280;11809;56.390;-3.266;2023-04-16T07:27:48;101861.53;;;16.74;56.14
23281;BME280;11809;56.390;-3.266;2023-04-16T07:30:15;101867.56;;;16.78;56.16
23281;BME280;11809;56.390;-3.266;2023-04-16T07:32:42;101866.66;;;16.79;55.96
23281;BME280;11809;56.390;-3.266;2023-04-16T07:35:10;101867.56;;;16.78;56.05
23281;BME280;11809;56.390;-3.266;2023-04-16T07:37:37;101867.28;;;16.84;56.13
23281;BME280;11809;56.390;-3.266;2023-04-16T07:40:04;101874.44;;;16.82;56.50
23281;BME280;11809;56.390;-3.266;2023-04-16T07:42:31;101873.38;;;16.86;56.38
23281;BME280;11809;56.390;-3.266;2023-04-16T07:44:59;101866.97;;;16.90;56.17
23281;BME280;11809;56.390;-3.266;2023-04-16T07:47:26;101878.28;;;16.95;56.22
23281;BME280;11809;56.390;-3.266;2023-04-16T07:49:53;101876.44;;;16.95;56.09
23281;BME280;11809;56.390;-3.266;2023-04-16T07:52:20;101878.91;;;17.00;56.28
23281;BME280;11809;56.390;-3.266;2023-04-16T07:54:47;101878.78;;;17.03;56.18
23281;BME280;11809;56.390;-3.266;2023-04-16T07:57:14;101880.34;;;17.07;56.48
23281;BME280;11809;56.390;-3.266;2023-04-16T07:59:42;101876.81;;;17.07;56.58
23281;BME280;11809;56.390;-3.266;2023-04-16T08:02:12;101880.94;;;16.95;56.93
23281;BME280;11809;56.390;-3.266;2023-04-16T08:04:41;101889.91;;;16.92;57.02
23281;BME280;11809;56.390;-3.266;2023-04-16T08:07:09;101885.50;;;16.91;56.85
23281;BME280;11809;56.390;-3.266;2023-04-16T08:09:46;101889.81;;;16.94;56.88
23281;BME280;11809;56.390;-3.266;2023-04-16T08:12:13;101887.88;;;16.98;56.77
23281;BME280;11809;56.390;-3.266;2023-04-16T08:14:40;101890.38;;;17.01;56.66
23281;BME280;11809;56.390;-3.266;2023-04-16T08:17:07;101886.75;;;17.03;56.54
23281;BME280;11809;56.390;-3.266;2023-04-16T08:19:35;101889.22;;;17.06;56.42
23281;BME280;11809;56.390;-3.266;2023-04-16T08:22:02;101874.00;;;17.10;56.33
23281;BME280;11809;56.390;-3.266;2023-04-16T08:24:29;101872.13;;;17.12;56.24
23281;BME280;11809;56.390;-3.266;2023-04-16T08:26:56;101869.44;;;17.13;56.45
23281;BME280;11809;56.390;-3.266;2023-04-16T08:29:43;101877.09;;;17.19;56.14
23281;BME280;11809;56.390;-3.266;2023-04-16T08:32:10;101873.44;;;17.22;56.14
23281;BME280;11809;56.390;-3.266;2023-04-16T08:34:37;101876.88;;;17.24;56.11
23281;BME280;11809;56.390;-3.266;2023-04-16T08:37:05;101881.19;;;17.26;56.30
23281;BME280;11809;56.390;-3.266;2023-04-16T08:39:32;101884.63;;;17.28;56.16
23281;BME280;11809;56.390;-3.266;2023-04-16T08:42:01;101883.75;;;17.28;55.85
23281;BME280;11809;56.390;-3.266;2023-04-16T08:44:33;101883.63;;;17.31;56.13
23281;BME280;11809;56.390;-3.266;2023-04-16T08:47:00;101892.22;;;17.36;56.33
23281;BME280;11809;56.390;-3.266;2023-04-16T08:49:28;101877.91;;;17.38;56.04
23281;BME280;11809;56.390;-3.266;2023-04-16T08:51:57;101886.75;;;17.39;56.11
23281;BME280;11809;56.390;-3.266;2023-04-16T08:57:26;101887.47;;;17.42;56.62
23281;BME280;11809;56.390;-3.266;2023-04-16T08:59:56;101885.44;;;17.47;56.68
23281;BME280;11809;56.390;-3.266;2023-04-16T09:02:24;101891.34;;;17.54;56.54
23281;BME280;11809;56.390;-3.266;2023-04-16T09:04:53;101895.59;;;17.58;56.42
23281;BME280;11809;56.390;-3.266;2023-04-16T09:07:23;101897.28;;;17.59;56.72
23281;BME280;11809;56.390;-3.266;2023-04-16T09:09:52;101897.28;;;17.59;56.67
23281;BME280;11809;56.390;-3.266;2023-04-16T09:12:22;101897.25;;;17.61;56.65
23281;BME280;11809;56.390;-3.266;2023-04-16T09:14:49;101898.97;;;17.62;56.70
23281;BME280;11809;56.390;-3.266;2023-04-16T09:17:17;101896.31;;;17.62;56.97
23281;BME280;11809;56.390;-3.266;2023-04-16T09:19:45;101897.88;;;17.66;57.17
23281;BME280;11809;56.390;-3.266;2023-04-16T09:22:12;101907.56;;;17.67;57.19
23281;BME280;11809;56.390;-3.266;2023-04-16T09:24:39;101907.16;;;17.57;55.21
23281;BME280;11809;56.390;-3.266;2023-04-16T09:27:07;101910.91;;;17.34;53.63
23281;BME280;11809;56.390;-3.266;2023-04-16T09:29:37;101904.88;;;17.12;52.79
23281;BME280;11809;56.390;-3.266;2023-04-16T09:32:06;101903.50;;;17.22;53.58
23281;BME280;11809;56.390;-3.266;2023-04-16T09:34:53;101908.16;;;17.36;54.55
23281;BME280;11809;56.390;-3.266;2023-04-16T09:37:20;101920.06;;;17.46;55.21
23281;BME280;11809;56.390;-3.266;2023-04-16T09:39:57;101921.66;;;17.50;55.56
23281;BME280;11809;56.390;-3.266;2023-04-16T09:42:27;101924.19;;;17.53;55.98
23281;BME280;11809;56.390;-3.266;2023-04-16T09:44:55;101924.88;;;17.56;56.02
23281;BME280;11809;56.390;-3.266;2023-04-16T09:47:43;101914.19;;;17.58;56.40
23281;BME280;11809;56.390;-3.266;2023-04-16T09:50:18;101912.41;;;17.59;56.58
23281;BME280;11809;56.390;-3.266;2023-04-16T09:52:49;101918.50;;;17.61;56.43
23281;BME280;11809;56.390;-3.266;2023-04-16T09:55:25;101915.75;;;17.62;56.84
23281;BME280;11809;56.390;-3.266;2023-04-16T09:57:59;101921.00;;;17.64;56.92
23281;BME280;11809;56.390;-3.266;2023-04-16T10:00:28;101923.44;;;17.68;56.91
23281;BME280;11809;56.390;-3.266;2023-04-16T10:03:03;101920.63;;;17.71;57.19
23281;BME280;11809;56.390;-3.266;2023-04-16T10:05:31;101918.69;;;17.75;57.17
23281;BME280;11809;56.390;-3.266;2023-04-16T10:07:59;101915.06;;;17.76;57.43
23281;BME280;11809;56.390;-3.266;2023-04-16T10:10:28;101910.53;;;17.78;57.23
23281;BME280;11809;56.390;-3.266;2023-04-16T10:12:56;101916.66;;;17.80;57.05
23281;BME280;11809;56.390;-3.266;2023-04-16T10:15:24;101913.84;;;17.83;57.07
23281;BME280;11809;56.390;-3.266;2023-04-16T10:17:52;101909.47;;;17.82;57.09
23281;BME280;11809;56.390;-3.266;2023-04-16T10:20:20;101916.66;;;17.80;56.93
23281;BME280;11809;56.390;-3.266;2023-04-16T10:22:48;101919.31;;;17.80;57.10
23281;BME280;11809;56.390;-3.266;2023-04-16T10:25:15;101922.59;;;17.85;57.53
23281;BME280;11809;56.390;-3.266;2023-04-16T10:27:44;101918.16;;;17.85;57.16
23281;BME280;11809;56.390;-3.266;2023-04-16T10:30:12;101911.59;;;17.56;54.14
23281;BME280;11809;56.390;-3.266;2023-04-16T10:32:40;101912.78;;;17.32;53.18
23281;BME280;11809;56.390;-3.266;2023-04-16T10:35:08;101928.66;;;17.15;53.13
23281;BME280;11809;56.390;-3.266;2023-04-16T10:37:36;101929.16;;;17.05;52.69
23281;BME280;11809;56.390;-3.266;2023-04-16T10:40:21;101935.19;;;16.89;52.57
23281;BME280;11809;56.390;-3.266;2023-04-16T10:42:56;101931.00;;;16.84;52.64
23281;BME280;11809;56.390;-3.266;2023-04-16T10:45:50;101929.41;;;16.80;52.90
23281;BME280;11809;56.390;-3.266;2023-04-16T10:48:18;101925.97;;;16.78;53.19
23281;BME280;11809;56.390;-3.266;2023-04-16T10:50:56;101929.53;;;16.77;53.09
23281;BME280;11809;56.390;-3.266;2023-04-16T10:53:25;101930.84;;;16.68;53.08
23281;BME280;11809;56.390;-3.266;2023-04-16T10:56:10;101939.84;;;16.64;52.79
23281;BME280;11809;56.390;-3.266;2023-04-16T10:58:38;101927.59;;;16.62;52.77
23281;BME280;11809;56.390;-3.266;2023-04-16T11:01:10;101929.19;;;16.66;52.56
23281;BME280;11809;56.390;-3.266;2023-04-16T11:03:43;101923.97;;;16.83;53.01
23281;BME280;11809;56.390;-3.266;2023-04-16T11:06:18;101929.38;;;17.00;53.65
23281;BME280;11809;56.390;-3.266;2023-04-16T11:08:50;101923.56;;;17.11;53.66
23281;BME280;11809;56.390;-3.266;2023-04-16T11:11:20;101918.81;;;17.17;53.80
23281;BME280;11809;56.390;-3.266;2023-04-16T11:13:48;101931.81;;;17.23;54.46
23281;BME280;11809;56.390;-3.266;2023-04-16T11:16:16;101924.69;;;17.42;56.13
23281;BME280;11809;56.390;-3.266;2023-04-16T11:18:44;101924.19;;;17.53;54.90
23281;BME280;11809;56.390;-3.266;2023-04-16T11:21:18;101915.31;;;17.52;54.68
23281;BME280;11809;56.390;-3.266;2023-04-16T11:23:47;101918.91;;;17.51;54.63
23281;BME280;11809;56.390;-3.266;2023-04-16T11:26:20;101924.22;;;17.51;54.70
23281;BME280;11809;56.390;-3.266;2023-04-16T11:28:48;101920.63;;;17.52;54.92
23281;BME280;11809;56.390;-3.266;2023-04-16T11:31:16;101927.63;;;17.55;55.04
23281;BME280;11809;56.390;-3.266;2023-04-16T11:33:43;101924.19;;;17.53;55.02
23281;BME280;11809;56.390;-3.266;2023-04-16T11:36:11;101930.28;;;17.55;55.05
23281;BME280;11809;56.390;-3.266;2023-04-16T11:38:41;101930.22;;;17.56;55.49
23281;BME280;11809;56.390;-3.266;2023-04-16T11:41:09;101931.94;;;17.58;55.43
23281;BME280;11809;56.390;-3.266;2023-04-16T11:43:37;101926.72;;;17.56;55.33
23281;BME280;11809;56.390;-3.266;2023-04-16T11:46:05;101932.81;;;17.58;56.09
23281;BME280;11809;56.390;-3.266;2023-04-16T11:48:53;101931.78;;;17.61;56.04
23281;BME280;11809;56.390;-3.266;2023-04-16T11:51:21;101930.06;;;17.60;55.95
23281;BME280;11809;56.390;-3.266;2023-04-16T11:53:50;101930.88;;;17.62;55.75
23281;BME280;11809;56.390;-3.266;2023-04-16T11:56:29;101931.66;;;17.64;56.22
23281;BME280;11809;56.390;-3.266;2023-04-16T12:01:39;101940.31;;;17.67;55.89
23281;BME280;11809;56.390;-3.266;2023-04-16T12:04:07;101936.34;;;17.59;56.30
23281;BME280;11809;56.390;-3.266;2023-04-16T12:06:35;101940.69;;;17.60;56.05
23281;BME280;11809;56.390;-3.266;2023-04-16T12:09:22;101942.44;;;17.61;56.30
23281;BME280;11809;56.390;-3.266;2023-04-16T12:11:50;101937.03;;;17.43;55.74
23281;BME280;11809;56.390;-3.266;2023-04-16T12:14:18;101940.03;;;17.36;55.62
23281;BME280;11809;56.390;-3.266;2023-04-16T12:16:46;101944.66;;;17.32;54.98
23281;BME280;11809;56.390;-3.266;2023-04-16T12:19:15;101941.19;;;17.12;54.30
23281;BME280;11809;56.390;-3.266;2023-04-16T12:21:46;101943.06;;;17.10;54.37
23281;BME280;11809;56.390;-3.266;2023-04-16T12:24:16;101943.50;;;17.19;54.74
23281;BME280;11809;56.390;-3.266;2023-04-16T12:26:51;101940.78;;;17.39;55.87
23281;BME280;11809;56.390;-3.266;2023-04-16T12:29:24;101945.00;;;17.43;55.90
23281;BME280;11809;56.390;-3.266;2023-04-16T12:31:52;101952.03;;;17.44;55.76
23281;BME280;11809;56.390;-3.266;2023-04-16T12:34:22;101941.28;;;17.47;55.87
23281;BME280;11809;56.390;-3.266;2023-04-16T12:37:10;101952.78;;;17.48;56.04
23281;BME280;11809;56.390;-3.266;2023-04-16T12:39:38;101955.19;;;17.52;56.11
23281;BME280;11809;56.390;-3.266;2023-04-16T12:42:05;101965.91;;;17.51;56.03
23281;BME280;11809;56.390;-3.266;2023-04-16T12:44:35;101965.91;;;17.51;56.08
23281;BME280;11809;56.390;-3.266;2023-04-16T12:47:03;101959.63;;;17.53;56.28
23281;BME280;11809;56.390;-3.266;2023-04-16T12:49:31;101958.63;;;17.56;56.25
23281;BME280;11809;56.390;-3.266;2023-04-16T12:51:59;101953.22;;;17.58;56.27